sensor_id;sensor_type;location;lat;lon;timestamp;pressure;altitude;pressure_sealevel;temperature;humidity
39105;BME280;46464;51.154;13.812;2023-05-23T00:01:07;51846.03;;;-146.96;67.42
39105;BME280;46464;51.154;13.812;2023-05-23T00:03:34;51858.22;;;-146.96;66.60
39105;BME280;46464;51.154;13.812;2023-05-23T00:06:11;51829.75;;;-146.96;66.46
39105;BME280;46464;51.154;13.812;2023-05-23T00:08:44;51850.09;;;-146.96;66.05
39105;BME280;46464;51.154;13.812;2023-05-23T00:11:18;51839.91;;;-146.96;66.26
39105;BME280;46464;51.154;13.812;2023-05-23T00:13:47;51905.03;;;-146.96;65.72
39105;BME280;46464;51.154;13.812;2023-05-23T00:16:20;51872.47;;;-146.96;65.68
39105;BME280;46464;51.154;13.812;2023-05-23T00:18:49;51852.13;;;-146.96;65.40
39105;BME280;46464;51.154;13.812;2023-05-23T00:21:21;51839.91;;;-146.96;64.41
39105;BME280;46464;51.154;13.812;2023-05-23T00:23:57;51858.22;;;-146.96;64.41
39105;BME280;46464;51.154;13.812;2023-05-23T00:26:26;51870.44;;;-146.96;64.72
39105;BME280;46464;51.154;13.812;2023-05-23T00:28:57;51817.53;;;-146.96;65.02
39105;BME280;46464;51.154;13.812;2023-05-23T00:31:36;51852.13;;;-146.96;65.15
39105;BME280;46464;51.154;13.812;2023-05-23T00:34:06;51846.03;;;-146.96;65.73
39105;BME280;46464;51.154;13.812;2023-05-23T00:36:38;51815.50;;;-146.96;65.48
39105;BME280;46464;51.154;13.812;2023-05-23T00:39:16;51815.50;;;-146.96;66.84
39105;BME280;46464;51.154;13.812;2023-05-23T00:41:50;51817.53;;;-146.96;68.16
39105;BME280;46464;51.154;13.812;2023-05-23T00:44:27;51815.50;;;-146.96;69.49
39105;BME280;46464;51.154;13.812;2023-05-23T00:46:58;51827.72;;;-146.96;69.48
39105;BME280;46464;51.154;13.812;2023-05-23T00:49:40;51817.53;;;-146.96;72.47
39105;BME280;46464;51.154;13.812;2023-05-23T00:52:13;51819.56;;;-146.96;72.19
39105;BME280;46464;51.154;13.812;2023-05-23T00:54:45;51846.03;;;-146.96;72.47
39105;BME280;46464;51.154;13.812;2023-05-23T00:57:17;51866.38;;;-146.96;73.90
39105;BME280;46464;51.154;13.812;2023-05-23T00:59:51;51860.25;;;-146.96;78.51
39105;BME280;46464;51.154;13.812;2023-05-23T01:02:23;51835.84;;;-146.96;77.42
39105;BME280;46464;51.154;13.812;2023-05-23T01:05:05;51864.34;;;-146.96;77.31
39105;BME280;46464;51.154;13.812;2023-05-23T01:07:36;51841.97;;;-146.96;78.18
39105;BME280;46464;51.154;13.812;2023-05-23T01:10:10;51831.78;;;-146.96;79.08
39105;BME280;46464;51.154;13.812;2023-05-23T01:18:39;51837.88;;;-146.96;81.85
39105;BME280;46464;51.154;13.812;2023-05-23T01:21:13;51868.41;;;-146.96;82.47
39105;BME280;46464;51.154;13.812;2023-05-23T01:29:34;51860.25;;;-146.96;83.48
39105;BME280;46464;51.154;13.812;2023-05-23T01:32:14;51817.53;;;-146.96;83.58
39105;BME280;46464;51.154;13.812;2023-05-23T01:34:50;51874.50;;;-146.96;84.06
39105;BME280;46464;51.154;13.812;2023-05-23T01:37:26;51880.63;;;-146.96;84.74
39105;BME280;46464;51.154;13.812;2023-05-23T01:40:00;51862.31;;;-146.96;85.37
39105;BME280;46464;51.154;13.812;2023-05-23T01:42:32;51862.31;;;-146.96;85.61
39105;BME280;46464;51.154;13.812;2023-05-23T01:45:03;51868.41;;;-146.96;86.16
39105;BME280;46464;51.154;13.812;2023-05-23T01:47:33;51850.09;;;-146.96;88.31
39105;BME280;46464;51.154;13.812;2023-05-23T01:50:06;51864.34;;;-146.96;88.62
39105;BME280;46464;51.154;13.812;2023-05-23T01:52:36;51862.31;;;-146.96;90.36
39105;BME280;46464;51.154;13.812;2023-05-23T01:55:13;51850.09;;;-146.96;91.45
39105;BME280;46464;51.154;13.812;2023-05-23T01:57:44;51858.22;;;-146.96;92.38
39105;BME280;46464;51.154;13.812;2023-05-23T02:00:15;51864.34;;;-146.96;91.80
39105;BME280;46464;51.154;13.812;2023-05-23T02:02:52;51864.34;;;-146.96;91.61
39105;BME280;46464;51.154;13.812;2023-05-23T02:05:21;51860.25;;;-146.96;91.62
39105;BME280;46464;51.154;13.812;2023-05-23T02:08:07;51884.69;;;-146.96;90.36
39105;BME280;46464;51.154;13.812;2023-05-23T02:10:39;51825.69;;;-146.96;90.51
39105;BME280;46464;51.154;13.812;2023-05-23T02:13:10;51896.88;;;-146.96;91.62
39105;BME280;46464;51.154;13.812;2023-05-23T02:15:37;51854.16;;;-146.96;91.74
39105;BME280;46464;51.154;13.812;2023-05-23T02:18:10;51854.16;;;-146.96;91.46
39105;BME280;46464;51.154;13.812;2023-05-23T02:20:39;51878.56;;;-146.96;90.93
39105;BME280;46464;51.154;13.812;2023-05-23T02:23:06;51878.56;;;-146.96;90.64
39105;BME280;46464;51.154;13.812;2023-05-23T02:25:37;51862.31;;;-146.96;90.34
39105;BME280;46464;51.154;13.812;2023-05-23T02:28:07;51860.25;;;-146.96;89.99
39105;BME280;46464;51.154;13.812;2023-05-23T02:30:43;51866.38;;;-146.96;89.85
39105;BME280;46464;51.154;13.812;2023-05-23T02:33:10;51872.47;;;-146.96;89.46
39105;BME280;46464;51.154;13.812;2023-05-23T02:35:47;51866.38;;;-146.96;88.98
39105;BME280;46464;51.154;13.812;2023-05-23T02:38:20;51892.81;;;-146.96;88.79
39105;BME280;46464;51.154;13.812;2023-05-23T02:40:56;51854.16;;;-146.96;88.67
39105;BME280;46464;51.154;13.812;2023-05-23T02:43:25;51872.47;;;-146.96;89.16
39105;BME280;46464;51.154;13.812;2023-05-23T02:46:00;51862.31;;;-146.96;88.65
39105;BME280;46464;51.154;13.812;2023-05-23T02:48:30;51856.19;;;-146.96;88.33
39105;BME280;46464;51.154;13.812;2023-05-23T02:51:04;51896.88;;;-146.96;88.16
39105;BME280;46464;51.154;13.812;2023-05-23T02:53:35;51886.72;;;-146.96;87.96
39105;BME280;46464;51.154;13.812;2023-05-23T02:56:08;51884.69;;;-146.96;88.06
39105;BME280;46464;51.154;13.812;2023-05-23T02:58:43;51854.16;;;-146.96;87.99
39105;BME280;46464;51.154;13.812;2023-05-23T03:01:17;51866.38;;;-146.96;87.84
39105;BME280;46464;51.154;13.812;2023-05-23T03:03:53;51882.66;;;-146.96;87.83
39105;BME280;46464;51.154;13.812;2023-05-23T03:06:20;51874.50;;;-146.96;87.62
39105;BME280;46464;51.154;13.812;2023-05-23T03:08:54;51878.56;;;-146.96;87.60
39105;BME280;46464;51.154;13.812;2023-05-23T03:11:26;51860.25;;;-146.96;87.33
39105;BME280;46464;51.154;13.812;2023-05-23T03:14:02;51884.69;;;-146.96;87.61
39105;BME280;46464;51.154;13.812;2023-05-23T03:16:33;51852.13;;;-146.96;88.16
39105;BME280;46464;51.154;13.812;2023-05-23T03:19:24;51862.31;;;-146.96;87.77
39105;BME280;46464;51.154;13.812;2023-05-23T03:21:59;51886.72;;;-146.96;87.69
39105;BME280;46464;51.154;13.812;2023-05-23T03:24:42;51894.84;;;-146.96;87.90
39105;BME280;46464;51.154;13.812;2023-05-23T03:27:13;51872.47;;;-146.96;87.84
39105;BME280;46464;51.154;13.812;2023-05-23T03:29:52;51890.78;;;-146.96;87.83
39105;BME280;46464;51.154;13.812;2023-05-23T03:32:21;51878.56;;;-146.96;88.34
39105;BME280;46464;51.154;13.812;2023-05-23T03:35:03;51870.44;;;-146.96;87.84
39105;BME280;46464;51.154;13.812;2023-05-23T03:37:34;51872.47;;;-146.96;87.93
39105;BME280;46464;51.154;13.812;2023-05-23T03:40:14;51860.25;;;-146.96;88.02
39105;BME280;46464;51.154;13.812;2023-05-23T03:43:00;51911.13;;;-146.96;88.31
39105;BME280;46464;51.154;13.812;2023-05-23T03:45:37;51900.97;;;-146.96;89.08
39105;BME280;46464;51.154;13.812;2023-05-23T03:48:18;51850.09;;;-146.96;88.84
39105;BME280;46464;51.154;13.812;2023-05-23T03:50:52;51864.34;;;-146.96;89.21
39105;BME280;46464;51.154;13.812;2023-05-23T03:53:24;51892.81;;;-146.96;89.34
39105;BME280;46464;51.154;13.812;2023-05-23T03:56:04;51880.63;;;-146.96;89.55
39105;BME280;46464;51.154;13.812;2023-05-23T03:58:35;51890.78;;;-146.96;89.74
39105;BME280;46464;51.154;13.812;2023-05-23T04:01:10;51880.63;;;-146.96;89.44
39105;BME280;46464;51.154;13.812;2023-05-23T04:03:45;51888.75;;;-146.96;89.64
39105;BME280;46464;51.154;13.812;2023-05-23T04:06:18;51890.78;;;-146.96;90.05
39105;BME280;46464;51.154;13.812;2023-05-23T04:08:51;51903.00;;;-146.96;90.55
39105;BME280;46464;51.154;13.812;2023-05-23T04:11:25;51880.63;;;-146.96;90.43
39105;BME280;46464;51.154;13.812;2023-05-23T04:13:55;51886.72;;;-146.96;90.29
39105;BME280;46464;51.154;13.812;2023-05-23T04:16:24;51846.03;;;-146.96;90.14
39105;BME280;46464;51.154;13.812;2023-05-23T04:18:51;51886.72;;;-146.96;90.92
39105;BME280;46464;51.154;13.812;2023-05-23T04:21:34;51862.31;;;-146.96;91.21
39105;BME280;46464;51.154;13.812;2023-05-23T04:24:09;51864.34;;;-146.96;92.29
39105;BME280;46464;51.154;13.812;2023-05-23T04:26:35;51868.41;;;-146.96;91.51
39105;BME280;46464;51.154;13.812;2023-05-23T04:29:20;51858.22;;;-146.96;90.67
39105;BME280;46464;51.154;13.812;2023-05-23T04:31:50;51866.38;;;-146.96;90.77
39105;BME280;46464;51.154;13.812;2023-05-23T04:34:26;51864.34;;;-146.96;91.30
39105;BME280;46464;51.154;13.812;2023-05-23T04:37:01;51896.88;;;-146.96;92.44
39105;BME280;46464;51.154;13.812;2023-05-23T04:39:31;51846.03;;;-146.96;93.21
39105;BME280;46464;51.154;13.812;2023-05-23T04:41:58;51854.16;;;-146.96;93.32
39105;BME280;46464;51.154;13.812;2023-05-23T04:44:33;51866.38;;;-146.96;93.54
39105;BME280;46464;51.154;13.812;2023-05-23T04:47:09;51870.44;;;-146.96;93.33
39105;BME280;46464;51.154;13.812;2023-05-23T04:49:42;51841.97;;;-146.96;92.25
39105;BME280;46464;51.154;13.812;2023-05-23T04:52:19;51831.78;;;-146.96;92.49
39105;BME280;46464;51.154;13.812;2023-05-23T04:54:55;51866.38;;;-146.96;92.56
39105;BME280;46464;51.154;13.812;2023-05-23T04:57:24;51872.47;;;-146.96;92.54
39105;BME280;46464;51.154;13.812;2023-05-23T04:59:59;51880.63;;;-146.96;93.27
39105;BME280;46464;51.154;13.812;2023-05-23T05:02:39;51854.16;;;-146.96;94.07
39105;BME280;46464;51.154;13.812;2023-05-23T05:05:11;51864.34;;;-146.96;94.65
39105;BME280;46464;51.154;13.812;2023-05-23T05:07:43;51878.56;;;-146.96;94.91
39105;BME280;46464;51.154;13.812;2023-05-23T05:10:18;51846.03;;;-146.96;93.61
39105;BME280;46464;51.154;13.812;2023-05-23T05:12:50;51870.44;;;-146.96;93.71
39105;BME280;46464;51.154;13.812;2023-05-23T05:15:17;51829.75;;;-146.96;92.89
39105;BME280;46464;51.154;13.812;2023-05-23T05:17:51;51862.31;;;-146.96;90.88
39105;BME280;46464;51.154;13.812;2023-05-23T05:20:21;51866.38;;;-146.96;90.74
39105;BME280;46464;51.154;13.812;2023-05-23T05:22:54;51854.16;;;-146.96;89.98
39105;BME280;46464;51.154;13.812;2023-05-23T05:25:23;51825.69;;;-146.96;90.25
39105;BME280;46464;51.154;13.812;2023-05-23T05:27:59;51850.09;;;-146.96;90.41
39105;BME280;46464;51.154;13.812;2023-05-23T05:30:45;51837.88;;;-146.96;89.56
39105;BME280;46464;51.154;13.812;2023-05-23T05:33:22;51835.84;;;-146.96;89.68
39105;BME280;46464;51.154;13.812;2023-05-23T05:35:49;51839.91;;;-146.96;90.83
39105;BME280;46464;51.154;13.812;2023-05-23T05:38:29;51864.34;;;-146.96;89.70
39105;BME280;46464;51.154;13.812;2023-05-23T05:41:11;51841.97;;;-146.96;90.37
39105;BME280;46464;51.154;13.812;2023-05-23T05:43:43;51825.69;;;-146.96;90.04
39105;BME280;46464;51.154;13.812;2023-05-23T05:46:09;51839.91;;;-146.96;90.73
39105;BME280;46464;51.154;13.812;2023-05-23T05:48:39;51817.53;;;-146.96;89.79
39105;BME280;46464;51.154;13.812;2023-05-23T05:51:12;51819.56;;;-146.96;90.04
39105;BME280;46464;51.154;13.812;2023-05-23T05:53:47;51850.09;;;-146.96;90.30
39105;BME280;46464;51.154;13.812;2023-05-23T05:56:22;51817.53;;;-146.96;89.26
39105;BME280;46464;51.154;13.812;2023-05-23T05:58:49;51809.41;;;-146.96;88.83
39105;BME280;46464;51.154;13.812;2023-05-23T06:01:21;51817.53;;;-146.96;88.81
39105;BME280;46464;51.154;13.812;2023-05-23T06:03:54;51799.22;;;-146.96;89.74
39105;BME280;46464;51.154;13.812;2023-05-23T06:06:26;51817.53;;;-146.96;89.67
39105;BME280;46464;51.154;13.812;2023-05-23T06:08:55;51805.34;;;-146.96;89.00
39105;BME280;46464;51.154;13.812;2023-05-23T06:11:22;51841.97;;;-146.96;89.11
39105;BME280;46464;51.154;13.812;2023-05-23T06:13:48;51785.00;;;-146.96;89.25
39105;BME280;46464;51.154;13.812;2023-05-23T06:16:18;51846.03;;;-146.96;88.53
39105;BME280;46464;51.154;13.812;2023-05-23T06:18:46;51856.19;;;-146.96;88.93
39105;BME280;46464;51.154;13.812;2023-05-23T06:21:21;51809.41;;;-146.96;88.44
39105;BME280;46464;51.154;13.812;2023-05-23T06:23:47;51833.81;;;-146.96;87.71
39105;BME280;46464;51.154;13.812;2023-05-23T06:26:14;51837.88;;;-146.96;86.66
39105;BME280;46464;51.154;13.812;2023-05-23T06:28:41;51807.38;;;-146.96;87.25
39105;BME280;46464;51.154;13.812;2023-05-23T06:31:07;51805.34;;;-146.96;85.78
39105;BME280;46464;51.154;13.812;2023-05-23T06:33:35;51833.81;;;-146.96;86.00
39105;BME280;46464;51.154;13.812;2023-05-23T06:36:05;51819.56;;;-146.96;85.83
39105;BME280;46464;51.154;13.812;2023-05-23T06:38:31;51833.81;;;-146.96;84.44
39105;BME280;46464;51.154;13.812;2023-05-23T06:41:01;51799.22;;;-146.96;83.28
39105;BME280;46464;51.154;13.812;2023-05-23T06:43:36;51807.38;;;-146.96;82.67
39105;BME280;46464;51.154;13.812;2023-05-23T06:46:03;51815.50;;;-146.96;83.33
39105;BME280;46464;51.154;13.812;2023-05-23T06:48:30;51805.34;;;-146.96;83.06
39105;BME280;46464;51.154;13.812;2023-05-23T06:51:01;51841.97;;;-146.96;83.57
39105;BME280;46464;51.154;13.812;2023-05-23T06:53:33;51819.56;;;-146.96;83.00
39105;BME280;46464;51.154;13.812;2023-05-23T06:56:00;51772.78;;;-146.96;82.38
39105;BME280;46464;51.154;13.812;2023-05-23T06:58:38;51839.91;;;-146.96;82.95
39105;BME280;46464;51.154;13.812;2023-05-23T07:01:10;51803.31;;;-146.96;83.08
39105;BME280;46464;51.154;13.812;2023-05-23T07:03:39;51825.69;;;-146.96;82.20
39105;BME280;46464;51.154;13.812;2023-05-23T07:06:13;51789.06;;;-146.96;82.33
39105;BME280;46464;51.154;13.812;2023-05-23T07:08:40;51805.34;;;-146.96;82.55
39105;BME280;46464;51.154;13.812;2023-05-23T07:11:08;51817.53;;;-146.96;81.95
39105;BME280;46464;51.154;13.812;2023-05-23T07:13:43;51815.50;;;-146.96;80.95
39105;BME280;46464;51.154;13.812;2023-05-23T07:16:13;51791.09;;;-146.96;80.27
39105;BME280;46464;51.154;13.812;2023-05-23T07:18:47;51787.03;;;-146.96;79.71
39105;BME280;46464;51.154;13.812;2023-05-23T07:21:14;51805.34;;;-146.96;80.36
39105;BME280;46464;51.154;13.812;2023-05-23T07:23:40;51789.06;;;-146.96;80.14
39105;BME280;46464;51.154;13.812;2023-05-23T07:26:06;51791.09;;;-146.96;77.46
39105;BME280;46464;51.154;13.812;2023-05-23T07:28:35;51793.13;;;-146.96;77.17
39105;BME280;46464;51.154;13.812;2023-05-23T07:31:02;51766.69;;;-146.96;78.96
39105;BME280;46464;51.154;13.812;2023-05-23T07:33:29;51782.97;;;-146.96;77.71
39105;BME280;46464;51.154;13.812;2023-05-23T07:35:55;51789.06;;;-146.96;78.64
39105;BME280;46464;51.154;13.812;2023-05-23T07:38:22;51803.31;;;-146.96;76.23
39105;BME280;46464;51.154;13.812;2023-05-23T07:40:48;51770.75;;;-146.96;76.34
39105;BME280;46464;51.154;13.812;2023-05-23T07:43:32;51762.63;;;-146.96;77.72
39105;BME280;46464;51.154;13.812;2023-05-23T07:45:58;51811.44;;;-146.96;75.87
39105;BME280;46464;51.154;13.812;2023-05-23T07:48:25;51823.66;;;-146.96;75.83
39105;BME280;46464;51.154;13.812;2023-05-23T07:50:52;51756.50;;;-146.96;74.30
39105;BME280;46464;51.154;13.812;2023-05-23T07:53:20;51754.47;;;-146.96;73.17
39105;BME280;46464;51.154;13.812;2023-05-23T07:55:47;51785.00;;;-146.96;73.17
39105;BME280;46464;51.154;13.812;2023-05-23T07:58:14;51758.53;;;-146.96;75.17
39105;BME280;46464;51.154;13.812;2023-05-23T08:00:40;51756.50;;;-146.96;73.82
39105;BME280;46464;51.154;13.812;2023-05-23T08:03:07;51736.16;;;-146.96;72.81
39105;BME280;46464;51.154;13.812;2023-05-23T08:05:33;51721.94;;;-146.96;74.25
39105;BME280;46464;51.154;13.812;2023-05-23T08:08:00;51732.09;;;-146.96;70.78
39105;BME280;46464;51.154;13.812;2023-05-23T08:10:26;51736.16;;;-146.96;71.06
39105;BME280;46464;51.154;13.812;2023-05-23T08:12:54;51746.34;;;-146.96;71.63
39105;BME280;46464;51.154;13.812;2023-05-23T08:15:21;51732.09;;;-146.96;71.42
39105;BME280;46464;51.154;13.812;2023-05-23T08:17:49;51736.16;;;-146.96;70.61
39105;BME280;46464;51.154;13.812;2023-05-23T08:20:16;51713.78;;;-146.96;68.65
39105;BME280;46464;51.154;13.812;2023-05-23T08:22:42;51736.16;;;-146.96;68.83
39105;BME280;46464;51.154;13.812;2023-05-23T08:25:08;51719.88;;;-146.96;68.26
39105;BME280;46464;51.154;13.812;2023-05-23T08:27:40;51693.44;;;-146.96;69.03
39105;BME280;46464;51.154;13.812;2023-05-23T08:30:13;51715.81;;;-146.96;69.53
39105;BME280;46464;51.154;13.812;2023-05-23T08:32:50;51734.13;;;-146.96;68.55
39105;BME280;46464;51.154;13.812;2023-05-23T08:35:20;51766.69;;;-146.96;69.05
39105;BME280;46464;51.154;13.812;2023-05-23T08:37:46;51734.13;;;-146.96;68.58
39105;BME280;46464;51.154;13.812;2023-05-23T08:40:17;51719.88;;;-146.96;69.19
39105;BME280;46464;51.154;13.812;2023-05-23T08:42:51;51715.81;;;-146.96;68.10
39105;BME280;46464;51.154;13.812;2023-05-23T08:45:23;51695.47;;;-146.96;69.42
39105;BME280;46464;51.154;13.812;2023-05-23T08:48:03;51728.03;;;-146.96;70.14
39105;BME280;46464;51.154;13.812;2023-05-23T08:50:44;51697.50;;;-146.96;69.63
39105;BME280;46464;51.154;13.812;2023-05-23T08:53:19;51746.34;;;-146.96;69.18
39105;BME280;46464;51.154;13.812;2023-05-23T08:55:53;51754.47;;;-146.96;69.25
39105;BME280;46464;51.154;13.812;2023-05-23T08:58:38;51723.97;;;-146.96;69.75
39105;BME280;46464;51.154;13.812;2023-05-23T09:01:10;51717.84;;;-146.96;67.76
39105;BME280;46464;51.154;13.812;2023-05-23T09:03:43;51703.63;;;-146.96;65.20
39105;BME280;46464;51.154;13.812;2023-05-23T09:06:16;51697.50;;;-146.96;65.41
39105;BME280;46464;51.154;13.812;2023-05-23T09:08:56;51691.41;;;-146.96;65.56
39105;BME280;46464;51.154;13.812;2023-05-23T09:11:42;51705.66;;;-146.96;65.16
39105;BME280;46464;51.154;13.812;2023-05-23T09:14:11;51707.69;;;-146.96;65.48
39105;BME280;46464;51.154;13.812;2023-05-23T09:16:46;51683.28;;;-146.96;65.82
39105;BME280;46464;51.154;13.812;2023-05-23T09:19:20;51691.41;;;-146.96;65.47
39105;BME280;46464;51.154;13.812;2023-05-23T09:21:47;51689.38;;;-146.96;66.46
39105;BME280;46464;51.154;13.812;2023-05-23T09:24:17;51705.66;;;-146.96;64.58
39105;BME280;46464;51.154;13.812;2023-05-23T09:26:47;51701.56;;;-146.96;63.55
39105;BME280;46464;51.154;13.812;2023-05-23T09:29:17;51699.53;;;-146.96;66.20
39105;BME280;46464;51.154;13.812;2023-05-23T09:31:44;51699.53;;;-146.96;67.40
39105;BME280;46464;51.154;13.812;2023-05-23T09:34:21;51721.94;;;-146.96;68.12
39105;BME280;46464;51.154;13.812;2023-05-23T09:36:52;51713.78;;;-146.96;70.19
39105;BME280;46464;51.154;13.812;2023-05-23T09:39:23;51752.44;;;-146.96;71.25
39105;BME280;46464;51.154;13.812;2023-05-23T09:42:04;51734.13;;;-146.96;71.17
39105;BME280;46464;51.154;13.812;2023-05-23T09:44:42;51723.97;;;-146.96;72.74
39105;BME280;46464;51.154;13.812;2023-05-23T09:47:12;51780.91;;;-146.96;72.62
39105;BME280;46464;51.154;13.812;2023-05-23T09:49:45;51754.47;;;-146.96;72.76
39105;BME280;46464;51.154;13.812;2023-05-23T09:52:16;51744.31;;;-146.96;72.94
39105;BME280;46464;51.154;13.812;2023-05-23T09:54:48;51744.31;;;-146.96;72.69
39105;BME280;46464;51.154;13.812;2023-05-23T09:57:20;51801.25;;;-146.96;73.74
39105;BME280;46464;51.154;13.812;2023-05-23T09:59:55;51764.66;;;-146.96;74.77
39105;BME280;46464;51.154;13.812;2023-05-23T10:05:46;51782.97;;;-146.96;74.39
39105;BME280;46464;51.154;13.812;2023-05-23T10:08:24;51805.34;;;-146.96;74.55
39105;BME280;46464;51.154;13.812;2023-05-23T10:13:48;51740.22;;;-146.96;74.85
39105;BME280;46464;51.154;13.812;2023-05-23T10:19:28;51772.78;;;-146.96;71.58
39105;BME280;46464;51.154;13.812;2023-05-23T10:22:00;51785.00;;;-146.96;69.59
39105;BME280;46464;51.154;13.812;2023-05-23T10:24:35;51760.56;;;-146.96;68.92
39105;BME280;46464;51.154;13.812;2023-05-23T10:27:09;51789.06;;;-146.96;65.65
39105;BME280;46464;51.154;13.812;2023-05-23T10:29:42;51756.50;;;-146.96;65.52
39105;BME280;46464;51.154;13.812;2023-05-23T10:32:23;51778.88;;;-146.96;65.71
39105;BME280;46464;51.154;13.812;2023-05-23T10:37:44;51776.84;;;-146.96;64.69
39105;BME280;46464;51.154;13.812;2023-05-23T10:43:07;51762.63;;;-146.96;65.60
39105;BME280;46464;51.154;13.812;2023-05-23T10:45:58;51768.72;;;-146.96;65.50
39105;BME280;46464;51.154;13.812;2023-05-23T10:48:45;51734.13;;;-146.96;65.93
39105;BME280;46464;51.154;13.812;2023-05-23T10:51:24;51770.75;;;-146.96;63.91
39105;BME280;46464;51.154;13.812;2023-05-23T10:53:54;51744.31;;;-146.96;63.51
39105;BME280;46464;51.154;13.812;2023-05-23T10:56:21;51703.63;;;-146.96;62.31
39105;BME280;46464;51.154;13.812;2023-05-23T10:58:54;51685.31;;;-146.96;65.17
39105;BME280;46464;51.154;13.812;2023-05-23T11:01:23;51703.63;;;-146.96;60.52
39105;BME280;46464;51.154;13.812;2023-05-23T11:03:56;51723.97;;;-146.96;61.13
39105;BME280;46464;51.154;13.812;2023-05-23T11:06:39;51717.84;;;-146.96;62.37
39105;BME280;46464;51.154;13.812;2023-05-23T11:09:15;51683.28;;;-146.96;61.41
39105;BME280;46464;51.154;13.812;2023-05-23T11:17:15;51734.13;;;-146.96;63.18
39105;BME280;46464;51.154;13.812;2023-05-23T11:22:42;51730.06;;;-146.96;62.59
39105;BME280;46464;51.154;13.812;2023-05-23T11:25:40;51742.28;;;-146.96;63.58
39105;BME280;46464;51.154;13.812;2023-05-23T11:28:12;51721.94;;;-146.96;64.00
39105;BME280;46464;51.154;13.812;2023-05-23T11:30:42;51715.81;;;-146.96;63.75
39105;BME280;46464;51.154;13.812;2023-05-23T11:33:14;51728.03;;;-146.96;64.06
39105;BME280;46464;51.154;13.812;2023-05-23T11:35:42;51719.88;;;-146.96;62.48
39105;BME280;46464;51.154;13.812;2023-05-23T11:38:12;51689.38;;;-146.96;63.79
39105;BME280;46464;51.154;13.812;2023-05-23T11:40:48;51736.16;;;-146.96;64.19
39105;BME280;46464;51.154;13.812;2023-05-23T11:43:21;51721.94;;;-146.96;63.13
39105;BME280;46464;51.154;13.812;2023-05-23T11:45:52;51719.88;;;-146.96;63.82
39105;BME280;46464;51.154;13.812;2023-05-23T11:48:52;51736.16;;;-146.96;63.20
39105;BME280;46464;51.154;13.812;2023-05-23T11:51:20;51711.75;;;-146.96;64.34
39105;BME280;46464;51.154;13.812;2023-05-23T11:53:52;51742.28;;;-146.96;65.19
39105;BME280;46464;51.154;13.812;2023-05-23T11:56:18;51683.28;;;-146.96;63.97
39105;BME280;46464;51.154;13.812;2023-05-23T11:58:48;51732.09;;;-146.96;63.31
39105;BME280;46464;51.154;13.812;2023-05-23T12:39:24;51736.16;;;-146.96;64.93
39105;BME280;46464;51.154;13.812;2023-05-23T12:42:08;51732.09;;;-146.96;64.27
39105;BME280;46464;51.154;13.812;2023-05-23T12:44:39;51738.19;;;-146.96;64.85
39105;BME280;46464;51.154;13.812;2023-05-23T12:47:20;51748.38;;;-146.96;63.44
39105;BME280;46464;51.154;13.812;2023-05-23T12:49:47;51738.19;;;-146.96;63.23
39105;BME280;46464;51.154;13.812;2023-05-23T12:52:22;51766.69;;;-146.96;62.81
39105;BME280;46464;51.154;13.812;2023-05-23T12:54:49;51742.28;;;-146.96;62.76
39105;BME280;46464;51.154;13.812;2023-05-23T12:57:29;51768.72;;;-146.96;64.04
39105;BME280;46464;51.154;13.812;2023-05-23T13:00:10;51789.06;;;-146.96;64.64
39105;BME280;46464;51.154;13.812;2023-05-23T13:02:40;51742.28;;;-146.96;64.38
39105;BME280;46464;51.154;13.812;2023-05-23T13:05:13;51748.38;;;-146.96;64.72
39105;BME280;46464;51.154;13.812;2023-05-23T13:07:43;51768.72;;;-146.96;65.74
39105;BME280;46464;51.154;13.812;2023-05-23T13:10:15;51797.19;;;-146.96;66.46
39105;BME280;46464;51.154;13.812;2023-05-23T13:12:48;51785.00;;;-146.96;66.65
39105;BME280;46464;51.154;13.812;2023-05-23T13:15:17;51807.38;;;-146.96;66.12
39105;BME280;46464;51.154;13.812;2023-05-23T13:17:47;51801.25;;;-146.96;65.83
39105;BME280;46464;51.154;13.812;2023-05-23T13:20:27;51815.50;;;-146.96;65.29
39105;BME280;46464;51.154;13.812;2023-05-23T13:23:03;51793.13;;;-146.96;66.04
39105;BME280;46464;51.154;13.812;2023-05-23T13:25:38;51829.75;;;-146.96;66.88
39105;BME280;46464;51.154;13.812;2023-05-23T13:28:06;51780.91;;;-146.96;65.36
39105;BME280;46464;51.154;13.812;2023-05-23T13:30:38;51801.25;;;-146.96;64.93
39105;BME280;46464;51.154;13.812;2023-05-23T13:33:17;51829.75;;;-146.96;65.61
39105;BME280;46464;51.154;13.812;2023-05-23T13:35:47;51803.31;;;-146.96;64.83
39105;BME280;46464;51.154;13.812;2023-05-23T13:38:18;51787.03;;;-146.96;63.64
39105;BME280;46464;51.154;13.812;2023-05-23T13:40:54;51797.19;;;-146.96;64.71
39105;BME280;46464;51.154;13.812;2023-05-23T13:43:23;51811.44;;;-146.96;64.92
39105;BME280;46464;51.154;13.812;2023-05-23T13:45:52;51811.44;;;-146.96;64.85
39105;BME280;46464;51.154;13.812;2023-05-23T13:48:21;51827.72;;;-146.96;65.83
39105;BME280;46464;51.154;13.812;2023-05-23T13:50:48;51815.50;;;-146.96;66.57
39105;BME280;46464;51.154;13.812;2023-05-23T13:53:24;51811.44;;;-146.96;66.45
39105;BME280;46464;51.154;13.812;2023-05-23T13:55:55;51850.09;;;-146.96;67.60
39105;BME280;46464;51.154;13.812;2023-05-23T13:58:27;51876.53;;;-146.96;66.84
39105;BME280;46464;51.154;13.812;2023-05-23T14:01:00;51817.53;;;-146.96;68.10
39105;BME280;46464;51.154;13.812;2023-05-23T14:03:34;51839.91;;;-146.96;67.86
39105;BME280;46464;51.154;13.812;2023-05-23T14:06:03;51872.47;;;-146.96;68.68
39105;BME280;46464;51.154;13.812;2023-05-23T14:11:31;51854.16;;;-146.96;69.36
39105;BME280;46464;51.154;13.812;2023-05-23T14:14:15;51874.50;;;-146.96;69.55